sensor_id;sensor_type;location;lat;lon;timestamp;temperature;humidity
29547;DHT22;40782;47.264;11.330;2023-04-23T00:01:15;12.80;99.90
29547;DHT22;40782;47.264;11.330;2023-04-23T00:03:43;12.90;99.90
29547;DHT22;40782;47.264;11.330;2023-04-23T00:06:10;12.90;99.90
29547;DHT22;40782;47.264;11.330;2023-04-23T00:08:39;13.10;99.90
29547;DHT22;40782;47.264;11.330;2023-04-23T00:11:06;13.00;99.90
29547;DHT22;40782;47.264;11.330;2023-04-23T00:13:34;12.80;99.90
29547;DHT22;40782;47.264;11.330;2023-04-23T00:16:01;12.80;99.90
29547;DHT22;40782;47.264;11.330;2023-04-23T00:18:28;12.80;99.90
29547;DHT22;40782;47.264;11.330;2023-04-23T00:20:55;12.80;99.90
29547;DHT22;40782;47.264;11.330;2023-04-23T00:23:22;12.90;99.90
29547;DHT22;40782;47.264;11.330;2023-04-23T00:25:51;13.00;99.90
29547;DHT22;40782;47.264;11.330;2023-04-23T00:28:18;13.10;99.90
29547;DHT22;40782;47.264;11.330;2023-04-23T00:30:45;13.10;99.90
29547;DHT22;40782;47.264;11.330;2023-04-23T00:33:12;12.80;99.90
29547;DHT22;40782;47.264;11.330;2023-04-23T00:35:39;12.70;99.90
29547;DHT22;40782;47.264;11.330;2023-04-23T00:38:05;12.70;99.90
29547;DHT22;40782;47.264;11.330;2023-04-23T00:40:32;12.70;99.90
29547;DHT22;40782;47.264;11.330;2023-04-23T00:43:01;12.60;99.90
29547;DHT22;40782;47.264;11.330;2023-04-23T00:45:27;12.60;99.90
29547;DHT22;40782;47.264;11.330;2023-04-23T00:47:54;12.70;99.90
29547;DHT22;40782;47.264;11.330;2023-04-23T00:50:21;12.80;99.90
29547;DHT22;40782;47.264;11.330;2023-04-23T00:52:48;12.90;99.90
29547;DHT22;40782;47.264;11.330;2023-04-23T00:55:15;12.80;99.90
29547;DHT22;40782;47.264;11.330;2023-04-23T00:57:45;12.80;99.90
29547;DHT22;40782;47.264;11.330;2023-04-23T01:00:13;12.60;99.90
29547;DHT22;40782;47.264;11.330;2023-04-23T01:02:41;12.60;99.90
29547;DHT22;40782;47.264;11.330;2023-04-23T01:05:08;12.70;99.90
29547;DHT22;40782;47.264;11.330;2023-04-23T01:07:36;12.60;99.90
29547;DHT22;40782;47.264;11.330;2023-04-23T01:10:03;12.70;99.90
29547;DHT22;40782;47.264;11.330;2023-04-23T01:12:30;12.80;99.90
29547;DHT22;40782;47.264;11.330;2023-04-23T01:14:57;12.90;99.90
29547;DHT22;40782;47.264;11.330;2023-04-23T01:17:25;12.90;99.90
29547;DHT22;40782;47.264;11.330;2023-04-23T01:19:52;12.90;99.90
29547;DHT22;40782;47.264;11.330;2023-04-23T01:22:21;12.70;99.90
29547;DHT22;40782;47.264;11.330;2023-04-23T01:24:48;12.70;99.90
29547;DHT22;40782;47.264;11.330;2023-04-23T01:27:15;12.70;99.90
29547;DHT22;40782;47.264;11.330;2023-04-23T01:29:44;12.70;99.90
29547;DHT22;40782;47.264;11.330;2023-04-23T01:32:11;12.70;99.90
29547;DHT22;40782;47.264;11.330;2023-04-23T01:34:39;12.80;99.90
29547;DHT22;40782;47.264;11.330;2023-04-23T01:37:06;12.60;99.90
29547;DHT22;40782;47.264;11.330;2023-04-23T01:39:35;12.60;99.90
29547;DHT22;40782;47.264;11.330;2023-04-23T01:42:02;12.60;99.90
29547;DHT22;40782;47.264;11.330;2023-04-23T01:44:31;12.70;99.90
29547;DHT22;40782;47.264;11.330;2023-04-23T01:46:58;12.70;99.90
29547;DHT22;40782;47.264;11.330;2023-04-23T01:49:25;12.40;99.90
29547;DHT22;40782;47.264;11.330;2023-04-23T01:51:52;12.50;99.90
29547;DHT22;40782;47.264;11.330;2023-04-23T01:54:19;12.60;99.90
29547;DHT22;40782;47.264;11.330;2023-04-23T01:56:47;12.60;99.90
29547;DHT22;40782;47.264;11.330;2023-04-23T01:59:14;12.60;99.90
29547;DHT22;40782;47.264;11.330;2023-04-23T02:01:41;12.70;99.90
29547;DHT22;40782;47.264;11.330;2023-04-23T02:04:09;12.70;99.90
29547;DHT22;40782;47.264;11.330;2023-04-23T02:06:37;12.70;99.90
29547;DHT22;40782;47.264;11.330;2023-04-23T02:09:04;12.60;99.90
29547;DHT22;40782;47.264;11.330;2023-04-23T02:11:31;12.40;99.90
29547;DHT22;40782;47.264;11.330;2023-04-23T02:13:59;12.40;99.90
29547;DHT22;40782;47.264;11.330;2023-04-23T02:16:26;12.30;99.90
29547;DHT22;40782;47.264;11.330;2023-04-23T02:18:53;12.20;99.90
29547;DHT22;40782;47.264;11.330;2023-04-23T02:21:21;12.20;99.90
29547;DHT22;40782;47.264;11.330;2023-04-23T02:23:48;12.20;99.90
29547;DHT22;40782;47.264;11.330;2023-04-23T02:26:15;12.20;99.90
29547;DHT22;40782;47.264;11.330;2023-04-23T02:28:43;12.30;99.90
29547;DHT22;40782;47.264;11.330;2023-04-23T02:31:11;12.40;99.90
29547;DHT22;40782;47.264;11.330;2023-04-23T02:33:38;12.50;99.90
29547;DHT22;40782;47.264;11.330;2023-04-23T02:36:05;12.60;99.90
29547;DHT22;40782;47.264;11.330;2023-04-23T02:38:32;12.60;99.90
29547;DHT22;40782;47.264;11.330;2023-04-23T02:40:59;12.70;99.90
29547;DHT22;40782;47.264;11.330;2023-04-23T02:43:26;12.70;99.90
29547;DHT22;40782;47.264;11.330;2023-04-23T02:45:53;12.30;99.90
29547;DHT22;40782;47.264;11.330;2023-04-23T02:48:22;12.10;99.90
29547;DHT22;40782;47.264;11.330;2023-04-23T02:50:50;12.00;99.90
29547;DHT22;40782;47.264;11.330;2023-04-23T02:53:17;11.80;99.90
29547;DHT22;40782;47.264;11.330;2023-04-23T02:55:44;11.80;99.90
29547;DHT22;40782;47.264;11.330;2023-04-23T02:58:11;11.80;99.90
29547;DHT22;40782;47.264;11.330;2023-04-23T03:00:38;11.70;99.90
29547;DHT22;40782;47.264;11.330;2023-04-23T03:03:05;11.60;99.90
29547;DHT22;40782;47.264;11.330;2023-04-23T03:05:33;11.60;99.90
29547;DHT22;40782;47.264;11.330;2023-04-23T03:08:00;11.60;99.90
29547;DHT22;40782;47.264;11.330;2023-04-23T03:10:27;11.70;99.90
29547;DHT22;40782;47.264;11.330;2023-04-23T03:12:53;11.70;99.90
29547;DHT22;40782;47.264;11.330;2023-04-23T03:15:21;11.70;99.90
29547;DHT22;40782;47.264;11.330;2023-04-23T03:17:48;11.60;99.90
29547;DHT22;40782;47.264;11.330;2023-04-23T03:20:15;11.60;99.90
29547;DHT22;40782;47.264;11.330;2023-04-23T03:22:44;11.60;99.90
29547;DHT22;40782;47.264;11.330;2023-04-23T03:25:11;11.70;99.90
29547;DHT22;40782;47.264;11.330;2023-04-23T03:27:38;11.70;99.90
29547;DHT22;40782;47.264;11.330;2023-04-23T03:30:06;11.60;99.90
29547;DHT22;40782;47.264;11.330;2023-04-23T03:32:33;11.60;99.90
29547;DHT22;40782;47.264;11.330;2023-04-23T03:35:00;11.40;99.90
29547;DHT22;40782;47.264;11.330;2023-04-23T03:37:27;11.40;99.90
29547;DHT22;40782;47.264;11.330;2023-04-23T03:39:55;11.30;99.90
29547;DHT22;40782;47.264;11.330;2023-04-23T03:42:22;11.30;99.90
29547;DHT22;40782;47.264;11.330;2023-04-23T03:44:49;11.30;99.90
29547;DHT22;40782;47.264;11.330;2023-04-23T03:47:16;11.40;99.90
29547;DHT22;40782;47.264;11.330;2023-04-23T03:49:42;11.50;99.90
29547;DHT22;40782;47.264;11.330;2023-04-23T03:52:09;11.50;99.90
29547;DHT22;40782;47.264;11.330;2023-04-23T03:54:36;11.40;99.90
29547;DHT22;40782;47.264;11.330;2023-04-23T03:57:04;11.40;99.90
29547;DHT22;40782;47.264;11.330;2023-04-23T03:59:31;11.40;99.90
29547;DHT22;40782;47.264;11.330;2023-04-23T04:01:58;11.40;99.90
29547;DHT22;40782;47.264;11.330;2023-04-23T04:04:27;11.40;99.90
29547;DHT22;40782;47.264;11.330;2023-04-23T04:06:55;11.50;99.90
29547;DHT22;40782;47.264;11.330;2023-04-23T04:09:22;11.70;99.90
29547;DHT22;40782;47.264;11.330;2023-04-23T04:11:48;11.70;99.90
29547;DHT22;40782;47.264;11.330;2023-04-23T04:14:17;11.50;99.90
29547;DHT22;40782;47.264;11.330;2023-04-23T04:16:44;11.30;99.90
29547;DHT22;40782;47.264;11.330;2023-04-23T04:19:10;11.40;99.90
29547;DHT22;40782;47.264;11.330;2023-04-23T04:21:37;11.40;99.90
29547;DHT22;40782;47.264;11.330;2023-04-23T04:24:04;11.30;99.90
29547;DHT22;40782;47.264;11.330;2023-04-23T04:26:32;11.30;99.90
29547;DHT22;40782;47.264;11.330;2023-04-23T04:28:59;11.40;99.90
29547;DHT22;40782;47.264;11.330;2023-04-23T04:31:28;11.30;99.90
29547;DHT22;40782;47.264;11.330;2023-04-23T04:33:55;11.20;99.90
29547;DHT22;40782;47.264;11.330;2023-04-23T04:36:22;11.30;99.90
29547;DHT22;40782;47.264;11.330;2023-04-23T04:38:51;11.30;99.90
29547;DHT22;40782;47.264;11.330;2023-04-23T04:41:20;11.40;99.90
29547;DHT22;40782;47.264;11.330;2023-04-23T04:43:47;11.60;99.90
29547;DHT22;40782;47.264;11.330;2023-04-23T04:46:14;11.70;99.90
29547;DHT22;40782;47.264;11.330;2023-04-23T04:48:45;11.80;99.90
29547;DHT22;40782;47.264;11.330;2023-04-23T04:51:12;11.80;99.90
29547;DHT22;40782;47.264;11.330;2023-04-23T04:53:39;11.90;99.90
29547;DHT22;40782;47.264;11.330;2023-04-23T04:56:06;12.10;99.90
29547;DHT22;40782;47.264;11.330;2023-04-23T04:58:33;12.20;99.90
29547;DHT22;40782;47.264;11.330;2023-04-23T05:01:00;12.20;99.90
29547;DHT22;40782;47.264;11.330;2023-04-23T05:03:27;12.00;99.90
29547;DHT22;40782;47.264;11.330;2023-04-23T05:05:55;12.00;99.90
29547;DHT22;40782;47.264;11.330;2023-04-23T05:08:23;12.00;99.90
29547;DHT22;40782;47.264;11.330;2023-04-23T05:10:50;12.10;99.90
29547;DHT22;40782;47.264;11.330;2023-04-23T05:13:18;12.10;99.90
29547;DHT22;40782;47.264;11.330;2023-04-23T05:15:45;12.10;99.90
29547;DHT22;40782;47.264;11.330;2023-04-23T05:18:12;12.00;99.90
29547;DHT22;40782;47.264;11.330;2023-04-23T05:20:39;12.00;99.90
29547;DHT22;40782;47.264;11.330;2023-04-23T05:23:08;11.90;99.90
29547;DHT22;40782;47.264;11.330;2023-04-23T05:25:35;11.90;99.90
29547;DHT22;40782;47.264;11.330;2023-04-23T05:28:02;12.10;99.90
29547;DHT22;40782;47.264;11.330;2023-04-23T05:30:29;12.20;99.90
29547;DHT22;40782;47.264;11.330;2023-04-23T05:32:56;12.20;99.90
29547;DHT22;40782;47.264;11.330;2023-04-23T05:35:23;12.30;99.90
29547;DHT22;40782;47.264;11.330;2023-04-23T05:37:50;12.40;99.90
29547;DHT22;40782;47.264;11.330;2023-04-23T05:40:18;12.30;99.90
29547;DHT22;40782;47.264;11.330;2023-04-23T05:42:45;12.30;99.90
29547;DHT22;40782;47.264;11.330;2023-04-23T05:45:12;12.50;99.90
29547;DHT22;40782;47.264;11.330;2023-04-23T05:47:38;12.60;99.90
29547;DHT22;40782;47.264;11.330;2023-04-23T05:50:06;12.50;99.90
29547;DHT22;40782;47.264;11.330;2023-04-23T05:52:35;12.60;99.90
29547;DHT22;40782;47.264;11.330;2023-04-23T05:55:04;12.50;99.90
29547;DHT22;40782;47.264;11.330;2023-04-23T05:57:33;12.30;99.90
29547;DHT22;40782;47.264;11.330;2023-04-23T06:00:00;12.40;99.90
29547;DHT22;40782;47.264;11.330;2023-04-23T06:02:28;12.40;99.90
29547;DHT22;40782;47.264;11.330;2023-04-23T06:04:55;12.40;99.90
29547;DHT22;40782;47.264;11.330;2023-04-23T06:07:22;12.30;99.90
29547;DHT22;40782;47.264;11.330;2023-04-23T06:09:49;12.30;99.90
29547;DHT22;40782;47.264;11.330;2023-04-23T06:12:16;12.30;99.90
29547;DHT22;40782;47.264;11.330;2023-04-23T06:14:44;12.30;99.90
29547;DHT22;40782;47.264;11.330;2023-04-23T06:17:12;12.30;99.90
29547;DHT22;40782;47.264;11.330;2023-04-23T06:19:39;12.30;99.90
29547;DHT22;40782;47.264;11.330;2023-04-23T06:22:06;12.40;99.90
29547;DHT22;40782;47.264;11.330;2023-04-23T06:24:33;12.50;99.90
29547;DHT22;40782;47.264;11.330;2023-04-23T06:27:01;12.70;99.90
29547;DHT22;40782;47.264;11.330;2023-04-23T06:29:28;12.70;99.90
29547;DHT22;40782;47.264;11.330;2023-04-23T06:31:58;12.70;99.90
29547;DHT22;40782;47.264;11.330;2023-04-23T06:34:27;12.70;99.90
29547;DHT22;40782;47.264;11.330;2023-04-23T06:36:54;12.60;99.90
29547;DHT22;40782;47.264;11.330;2023-04-23T06:39:21;12.70;99.90
29547;DHT22;40782;47.264;11.330;2023-04-23T06:41:48;12.70;99.90
29547;DHT22;40782;47.264;11.330;2023-04-23T06:44:15;12.70;99.90
29547;DHT22;40782;47.264;11.330;2023-04-23T06:46:42;12.80;99.90
29547;DHT22;40782;47.264;11.330;2023-04-23T06:49:10;12.80;99.90
29547;DHT22;40782;47.264;11.330;2023-04-23T06:51:37;12.80;99.90
29547;DHT22;40782;47.264;11.330;2023-04-23T06:54:05;12.70;99.90
29547;DHT22;40782;47.264;11.330;2023-04-23T06:56:32;12.80;99.90
29547;DHT22;40782;47.264;11.330;2023-04-23T06:58:59;13.00;99.90
29547;DHT22;40782;47.264;11.330;2023-04-23T07:01:26;13.10;99.90
29547;DHT22;40782;47.264;11.330;2023-04-23T07:03:53;13.20;99.90
29547;DHT22;40782;47.264;11.330;2023-04-23T07:06:21;13.50;99.90
29547;DHT22;40782;47.264;11.330;2023-04-23T07:08:48;13.70;99.90
29547;DHT22;40782;47.264;11.330;2023-04-23T07:11:15;14.00;99.90
29547;DHT22;40782;47.264;11.330;2023-04-23T07:13:42;14.10;99.90
29547;DHT22;40782;47.264;11.330;2023-04-23T07:16:10;14.10;99.90
29547;DHT22;40782;47.264;11.330;2023-04-23T07:18:37;14.30;99.90
29547;DHT22;40782;47.264;11.330;2023-04-23T07:21:04;14.40;99.90
29547;DHT22;40782;47.264;11.330;2023-04-23T07:23:32;14.50;99.90
29547;DHT22;40782;47.264;11.330;2023-04-23T07:25:59;14.40;99.90
29547;DHT22;40782;47.264;11.330;2023-04-23T07:28:26;14.50;99.90
29547;DHT22;40782;47.264;11.330;2023-04-23T07:30:54;14.50;99.90
29547;DHT22;40782;47.264;11.330;2023-04-23T07:33:21;14.60;99.90
29547;DHT22;40782;47.264;11.330;2023-04-23T07:35:48;14.80;99.90
29547;DHT22;40782;47.264;11.330;2023-04-23T07:38:15;14.90;99.90
29547;DHT22;40782;47.264;11.330;2023-04-23T07:40:43;14.80;99.90
29547;DHT22;40782;47.264;11.330;2023-04-23T07:43:11;14.80;99.90
29547;DHT22;40782;47.264;11.330;2023-04-23T07:45:39;14.70;99.90
29547;DHT22;40782;47.264;11.330;2023-04-23T07:48:06;14.90;99.90
29547;DHT22;40782;47.264;11.330;2023-04-23T07:50:33;15.00;99.90
29547;DHT22;40782;47.264;11.330;2023-04-23T07:53:00;14.90;99.90
29547;DHT22;40782;47.264;11.330;2023-04-23T07:55:27;15.00;99.90
29547;DHT22;40782;47.264;11.330;2023-04-23T07:57:56;14.90;99.90
29547;DHT22;40782;47.264;11.330;2023-04-23T08:00:23;14.70;99.90
29547;DHT22;40782;47.264;11.330;2023-04-23T08:02:52;14.80;99.90
29547;DHT22;40782;47.264;11.330;2023-04-23T08:05:19;14.90;99.90
29547;DHT22;40782;47.264;11.330;2023-04-23T08:07:46;14.90;99.90
29547;DHT22;40782;47.264;11.330;2023-04-23T08:10:13;15.00;99.90
29547;DHT22;40782;47.264;11.330;2023-04-23T08:12:40;15.20;99.90
29547;DHT22;40782;47.264;11.330;2023-04-23T08:15:09;15.40;99.90
29547;DHT22;40782;47.264;11.330;2023-04-23T08:17:36;15.60;99.90
29547;DHT22;40782;47.264;11.330;2023-04-23T08:20:03;15.60;99.90
29547;DHT22;40782;47.264;11.330;2023-04-23T08:22:31;15.90;99.90
29547;DHT22;40782;47.264;11.330;2023-04-23T08:24:59;16.00;99.90
29547;DHT22;40782;47.264;11.330;2023-04-23T08:27:26;16.10;99.90
29547;DHT22;40782;47.264;11.330;2023-04-23T08:29:53;16.30;99.90
29547;DHT22;40782;47.264;11.330;2023-04-23T08:32:22;16.30;99.90
29547;DHT22;40782;47.264;11.330;2023-04-23T08:34:49;16.40;99.90
29547;DHT22;40782;47.264;11.330;2023-04-23T08:37:16;16.40;99.90
29547;DHT22;40782;47.264;11.330;2023-04-23T08:39:43;16.60;99.90
29547;DHT22;40782;47.264;11.330;2023-04-23T08:42:12;16.70;99.90
29547;DHT22;40782;47.264;11.330;2023-04-23T08:44:41;16.80;99.90
29547;DHT22;40782;47.264;11.330;2023-04-23T08:47:09;17.00;99.90
29547;DHT22;40782;47.264;11.330;2023-04-23T08:49:39;17.00;99.90
29547;DHT22;40782;47.264;11.330;2023-04-23T08:52:09;17.10;99.90
29547;DHT22;40782;47.264;11.330;2023-04-23T08:54:40;17.30;99.90
29547;DHT22;40782;47.264;11.330;2023-04-23T08:57:11;17.40;99.90
29547;DHT22;40782;47.264;11.330;2023-04-23T08:59:39;17.50;99.90
29547;DHT22;40782;47.264;11.330;2023-04-23T09:02:06;17.60;99.90
29547;DHT22;40782;47.264;11.330;2023-04-23T09:04:35;17.70;99.90
29547;DHT22;40782;47.264;11.330;2023-04-23T09:07:03;17.90;99.90
29547;DHT22;40782;47.264;11.330;2023-04-23T09:09:32;17.90;99.90
29547;DHT22;40782;47.264;11.330;2023-04-23T09:12:00;17.90;99.90
29547;DHT22;40782;47.264;11.330;2023-04-23T09:14:27;17.90;99.90
29547;DHT22;40782;47.264;11.330;2023-04-23T09:16:54;18.10;99.90
29547;DHT22;40782;47.264;11.330;2023-04-23T09:19:21;18.00;99.90
29547;DHT22;40782;47.264;11.330;2023-04-23T09:21:49;18.00;99.90
29547;DHT22;40782;47.264;11.330;2023-04-23T09:24:18;18.10;99.90
29547;DHT22;40782;47.264;11.330;2023-04-23T09:26:48;18.20;99.90
29547;DHT22;40782;47.264;11.330;2023-04-23T09:29:15;18.40;99.90
29547;DHT22;40782;47.264;11.330;2023-04-23T09:31:43;18.70;99.90
29547;DHT22;40782;47.264;11.330;2023-04-23T09:34:13;18.80;99.90
29547;DHT22;40782;47.264;11.330;2023-04-23T09:36:41;18.80;99.90
29547;DHT22;40782;47.264;11.330;2023-04-23T09:39:12;18.80;99.90
29547;DHT22;40782;47.264;11.330;2023-04-23T09:41:41;19.00;99.90
29547;DHT22;40782;47.264;11.330;2023-04-23T09:44:08;19.00;99.90
29547;DHT22;40782;47.264;11.330;2023-04-23T09:46:38;19.00;99.90
29547;DHT22;40782;47.264;11.330;2023-04-23T09:49:06;19.10;99.90
29547;DHT22;40782;47.264;11.330;2023-04-23T09:51:35;19.10;99.90
29547;DHT22;40782;47.264;11.330;2023-04-23T09:54:02;19.30;99.90
29547;DHT22;40782;47.264;11.330;2023-04-23T09:56:30;19.60;99.90
29547;DHT22;40782;47.264;11.330;2023-04-23T09:58:58;19.70;99.90
29547;DHT22;40782;47.264;11.330;2023-04-23T10:01:28;19.80;99.90
29547;DHT22;40782;47.264;11.330;2023-04-23T10:03:55;19.80;99.90
29547;DHT22;40782;47.264;11.330;2023-04-23T10:06:28;20.00;99.90
29547;DHT22;40782;47.264;11.330;2023-04-23T10:08:56;20.30;99.90
29547;DHT22;40782;47.264;11.330;2023-04-23T10:11:24;20.50;99.90
29547;DHT22;40782;47.264;11.330;2023-04-23T10:13:51;20.90;99.90
29547;DHT22;40782;47.264;11.330;2023-04-23T10:16:21;21.20;99.90
29547;DHT22;40782;47.264;11.330;2023-04-23T10:18:49;21.60;99.90
29547;DHT22;40782;47.264;11.330;2023-04-23T10:21:17;22.00;99.90
29547;DHT22;40782;47.264;11.330;2023-04-23T10:23:45;22.20;99.90
29547;DHT22;40782;47.264;11.330;2023-04-23T10:26:13;21.80;99.90
29547;DHT22;40782;47.264;11.330;2023-04-23T10:28:42;22.00;99.90
29547;DHT22;40782;47.264;11.330;2023-04-23T10:31:10;22.00;99.90
29547;DHT22;40782;47.264;11.330;2023-04-23T10:33:39;22.30;99.90
29547;DHT22;40782;47.264;11.330;2023-04-23T10:36:08;22.60;99.90
29547;DHT22;40782;47.264;11.330;2023-04-23T10:38:35;23.00;99.90
29547;DHT22;40782;47.264;11.330;2023-04-23T10:41:02;23.30;99.90
29547;DHT22;40782;47.264;11.330;2023-04-23T10:43:30;23.50;99.90
29547;DHT22;40782;47.264;11.330;2023-04-23T10:45:57;23.60;99.90
29547;DHT22;40782;47.264;11.330;2023-04-23T10:48:26;23.80;99.90
29547;DHT22;40782;47.264;11.330;2023-04-23T10:50:57;24.00;99.90
29547;DHT22;40782;47.264;11.330;2023-04-23T10:53:24;24.10;99.90
29547;DHT22;40782;47.264;11.330;2023-04-23T10:56:03;24.40;99.90
29547;DHT22;40782;47.264;11.330;2023-04-23T10:58:46;24.40;99.90
29547;DHT22;40782;47.264;11.330;2023-04-23T11:01:14;24.80;99.90
29547;DHT22;40782;47.264;11.330;2023-04-23T11:03:42;25.20;99.90
29547;DHT22;40782;47.264;11.330;2023-04-23T11:06:12;25.00;99.90
29547;DHT22;40782;47.264;11.330;2023-04-23T11:08:49;25.30;99.90
29547;DHT22;40782;47.264;11.330;2023-04-23T11:11:17;25.20;99.90
29547;DHT22;40782;47.264;11.330;2023-04-23T11:13:50;25.20;99.90
29547;DHT22;40782;47.264;11.330;2023-04-23T11:16:19;25.20;99.90
29547;DHT22;40782;47.264;11.330;2023-04-23T11:18:59;25.60;99.20
29547;DHT22;40782;47.264;11.330;2023-04-23T11:24:15;26.40;96.30
29547;DHT22;40782;47.264;11.330;2023-04-23T11:26:42;26.60;96.20
29547;DHT22;40782;47.264;11.330;2023-04-23T11:29:09;26.80;92.90
29547;DHT22;40782;47.264;11.330;2023-04-23T11:31:40;26.70;93.00
29547;DHT22;40782;47.264;11.330;2023-04-23T11:34:08;26.50;91.50
29547;DHT22;40782;47.264;11.330;2023-04-23T11:36:36;27.10;87.80
29547;DHT22;40782;47.264;11.330;2023-04-23T11:39:04;27.60;89.40
29547;DHT22;40782;47.264;11.330;2023-04-23T11:41:32;27.50;85.00
29547;DHT22;40782;47.264;11.330;2023-04-23T11:44:00;27.20;82.00
29547;DHT22;40782;47.264;11.330;2023-04-23T11:46:29;27.70;84.60
29547;DHT22;40782;47.264;11.330;2023-04-23T11:48:57;28.00;80.10
29547;DHT22;40782;47.264;11.330;2023-04-23T11:51:25;27.70;71.50
29547;DHT22;40782;47.264;11.330;2023-04-23T11:53:53;27.90;71.70
29547;DHT22;40782;47.264;11.330;2023-04-23T11:56:20;28.20;70.60
29547;DHT22;40782;47.264;11.330;2023-04-23T11:58:58;28.20;71.00
29547;DHT22;40782;47.264;11.330;2023-04-23T12:01:25;28.90;60.40
29547;DHT22;40782;47.264;11.330;2023-04-23T12:03:52;29.10;59.20
29547;DHT22;40782;47.264;11.330;2023-04-23T12:06:19;29.30;52.80
29547;DHT22;40782;47.264;11.330;2023-04-23T12:08:47;28.90;48.60
29547;DHT22;40782;47.264;11.330;2023-04-23T12:11:14;29.00;49.10
29547;DHT22;40782;47.264;11.330;2023-04-23T12:13:41;29.20;45.40
29547;DHT22;40782;47.264;11.330;2023-04-23T12:16:10;28.50;45.40
29547;DHT22;40782;47.264;11.330;2023-04-23T12:18:38;28.20;44.60
29547;DHT22;40782;47.264;11.330;2023-04-23T12:21:07;28.60;43.10
29547;DHT22;40782;47.264;11.330;2023-04-23T12:23:36;28.80;43.20
29547;DHT22;40782;47.264;11.330;2023-04-23T12:26:04;28.80;38.90
29547;DHT22;40782;47.264;11.330;2023-04-23T12:28:44;28.70;39.00
29547;DHT22;40782;47.264;11.330;2023-04-23T12:31:17;28.90;41.40
29547;DHT22;40782;47.264;11.330;2023-04-23T12:33:44;29.20;37.90
29547;DHT22;40782;47.264;11.330;2023-04-23T12:36:13;29.30;32.10
29547;DHT22;40782;47.264;11.330;2023-04-23T12:38:40;29.50;34.60
29547;DHT22;40782;47.264;11.330;2023-04-23T12:41:08;29.20;30.50
29547;DHT22;40782;47.264;11.330;2023-04-23T12:43:36;28.60;29.40
29547;DHT22;40782;47.264;11.330;2023-04-23T12:46:03;27.80;30.40
29547;DHT22;40782;47.264;11.330;2023-04-23T12:48:31;27.20;54.10
29547;DHT22;40782;47.264;11.330;2023-04-23T12:50:58;26.60;36.60
29547;DHT22;40782;47.264;11.330;2023-04-23T12:53:28;26.10;36.30
29547;DHT22;40782;47.264;11.330;2023-04-23T12:55:56;26.20;39.50
29547;DHT22;40782;47.264;11.330;2023-04-23T12:58:23;26.40;40.60
29547;DHT22;40782;47.264;11.330;2023-04-23T13:00:52;26.00;37.20
29547;DHT22;40782;47.264;11.330;2023-04-23T13:03:19;25.70;37.80
29547;DHT22;40782;47.264;11.330;2023-04-23T13:05:50;25.70;41.30
29547;DHT22;40782;47.264;11.330;2023-04-23T13:08:17;25.80;41.50
29547;DHT22;40782;47.264;11.330;2023-04-23T13:10:44;25.70;43.60
29547;DHT22;40782;47.264;11.330;2023-04-23T13:13:11;25.90;40.30
29547;DHT22;40782;47.264;11.330;2023-04-23T13:15:38;25.70;43.90
29547;DHT22;40782;47.264;11.330;2023-04-23T13:18:05;25.70;43.40
29547;DHT22;40782;47.264;11.330;2023-04-23T13:20:32;25.90;46.90
29547;DHT22;40782;47.264;11.330;2023-04-23T13:23:01;26.30;44.00
29547;DHT22;40782;47.264;11.330;2023-04-23T13:25:28;27.10;40.70
29547;DHT22;40782;47.264;11.330;2023-04-23T13:27:55;27.60;39.30
29547;DHT22;40782;47.264;11.330;2023-04-23T13:30:22;28.20;37.50
29547;DHT22;40782;47.264;11.330;2023-04-23T13:32:49;28.30;28.30
29547;DHT22;40782;47.264;11.330;2023-04-23T13:35:17;28.20;28.60
29547;DHT22;40782;47.264;11.330;2023-04-23T13:37:45;28.20;30.10
29547;DHT22;40782;47.264;11.330;2023-04-23T13:40:14;28.60;29.70
29547;DHT22;40782;47.264;11.330;2023-04-23T13:42:41;28.50;26.80
29547;DHT22;40782;47.264;11.330;2023-04-23T13:45:08;27.80;26.10
29547;DHT22;40782;47.264;11.330;2023-04-23T13:47:36;27.40;26.30
29547;DHT22;40782;47.264;11.330;2023-04-23T13:50:03;27.40;27.70
29547;DHT22;40782;47.264;11.330;2023-04-23T13:52:31;27.20;31.60
29547;DHT22;40782;47.264;11.330;2023-04-23T13:54:58;27.30;28.90
29547;DHT22;40782;47.264;11.330;2023-04-23T13:57:29;27.00;28.60
29547;DHT22;40782;47.264;11.330;2023-04-23T13:59:58;26.90;28.60
29547;DHT22;40782;47.264;11.330;2023-04-23T14:02:26;27.10;46.60
29547;DHT22;40782;47.264;11.330;2023-04-23T14:04:53;27.60;29.60
29547;DHT22;40782;47.264;11.330;2023-04-23T14:07:20;27.90;31.80
29547;DHT22;40782;47.264;11.330;2023-04-23T14:09:47;28.00;27.30
29547;DHT22;40782;47.264;11.330;2023-04-23T14:12:17;27.80;26.90
29547;DHT22;40782;47.264;11.330;2023-04-23T14:14:45;27.10;27.40
29547;DHT22;40782;47.264;11.330;2023-04-23T14:17:13;26.80;30.50
29547;DHT22;40782;47.264;11.330;2023-04-23T14:19:40;27.40;30.60
29547;DHT22;40782;47.264;11.330;2023-04-23T14:22:07;28.00;28.20
29547;DHT22;40782;47.264;11.330;2023-04-23T14:24:38;28.60;27.20
29547;DHT22;40782;47.264;11.330;2023-04-23T14:27:05;29.10;26.70
29547;DHT22;40782;47.264;11.330;2023-04-23T14:29:33;29.70;23.50
29547;DHT22;40782;47.264;11.330;2023-04-23T14:32:03;29.80;20.90
29547;DHT22;40782;47.264;11.330;2023-04-23T14:34:30;29.10;19.90
29547;DHT22;40782;47.264;11.330;2023-04-23T14:36:59;28.70;20.90
29547;DHT22;40782;47.264;11.330;2023-04-23T14:39:26;28.50;22.30
29547;DHT22;40782;47.264;11.330;2023-04-23T14:41:54;28.20;24.30
29547;DHT22;40782;47.264;11.330;2023-04-23T14:44:21;27.80;23.00
29547;DHT22;40782;47.264;11.330;2023-04-23T14:46:50;27.30;24.30
29547;DHT22;40782;47.264;11.330;2023-04-23T14:49:19;26.80;25.90
29547;DHT22;40782;47.264;11.330;2023-04-23T14:51:47;26.10;25.90
29547;DHT22;40782;47.264;11.330;2023-04-23T14:54:15;25.40;28.40
29547;DHT22;40782;47.264;11.330;2023-04-23T14:56:42;24.80;30.40
29547;DHT22;40782;47.264;11.330;2023-04-23T14:59:09;24.40;33.70
29547;DHT22;40782;47.264;11.330;2023-04-23T15:01:36;24.10;33.80
29547;DHT22;40782;47.264;11.330;2023-04-23T15:04:04;23.90;38.70
29547;DHT22;40782;47.264;11.330;2023-04-23T15:06:32;23.90;40.10
29547;DHT22;40782;47.264;11.330;2023-04-23T15:08:59;24.10;41.90
29547;DHT22;40782;47.264;11.330;2023-04-23T15:11:26;24.80;42.80
29547;DHT22;40782;47.264;11.330;2023-04-23T15:13:59;25.50;39.60
29547;DHT22;40782;47.264;11.330;2023-04-23T15:16:28;26.30;50.70
29547;DHT22;40782;47.264;11.330;2023-04-23T15:18:55;26.60;51.30
29547;DHT22;40782;47.264;11.330;2023-04-23T15:21:23;26.60;47.70